sensor_id;sensor_type;location;lat;lon;timestamp;P1;durP1;ratioP1;P2;durP2;ratioP2
52974;SDS011;38839;45.186;5.720;2023-09-30T00:00:36;5.80;;;3.15;;
52974;SDS011;38839;45.186;5.720;2023-09-30T00:03:01;5.80;;;2.90;;
52974;SDS011;38839;45.186;5.720;2023-09-30T00:05:27;6.85;;;3.20;;
52974;SDS011;38839;45.186;5.720;2023-09-30T00:07:52;7.60;;;3.55;;
52974;SDS011;38839;45.186;5.720;2023-09-30T00:10:18;7.30;;;4.03;;
52974;SDS011;38839;45.186;5.720;2023-09-30T00:12:43;7.63;;;4.05;;
52974;SDS011;38839;45.186;5.720;2023-09-30T00:15:09;7.70;;;4.20;;
52974;SDS011;38839;45.186;5.720;2023-09-30T00:17:35;11.00;;;4.40;;
52974;SDS011;38839;45.186;5.720;2023-09-30T00:20:00;7.03;;;3.92;;
52974;SDS011;38839;45.186;5.720;2023-09-30T00:22:25;7.40;;;4.07;;
52974;SDS011;38839;45.186;5.720;2023-09-30T00:24:51;8.45;;;4.55;;
52974;SDS011;38839;45.186;5.720;2023-09-30T00:27:16;8.95;;;4.40;;
52974;SDS011;38839;45.186;5.720;2023-09-30T00:29:42;8.15;;;4.03;;
52974;SDS011;38839;45.186;5.720;2023-09-30T00:32:07;11.23;;;4.53;;
52974;SDS011;38839;45.186;5.720;2023-09-30T00:34:35;10.70;;;4.60;;
52974;SDS011;38839;45.186;5.720;2023-09-30T00:37:01;10.52;;;4.00;;
52974;SDS011;38839;45.186;5.720;2023-09-30T00:39:26;9.18;;;4.78;;
52974;SDS011;38839;45.186;5.720;2023-09-30T00:41:55;10.07;;;4.07;;
52974;SDS011;38839;45.186;5.720;2023-09-30T00:44:23;9.80;;;4.85;;
52974;SDS011;38839;45.186;5.720;2023-09-30T00:46:49;9.75;;;5.13;;
52974;SDS011;38839;45.186;5.720;2023-09-30T00:49:15;10.30;;;4.70;;
52974;SDS011;38839;45.186;5.720;2023-09-30T00:51:42;10.77;;;4.43;;
52974;SDS011;38839;45.186;5.720;2023-09-30T00:54:08;7.45;;;4.18;;
52974;SDS011;38839;45.186;5.720;2023-09-30T00:56:33;14.00;;;5.00;;
52974;SDS011;38839;45.186;5.720;2023-09-30T00:59:06;9.90;;;4.80;;
52974;SDS011;38839;45.186;5.720;2023-09-30T01:01:31;9.18;;;4.30;;
52974;SDS011;38839;45.186;5.720;2023-09-30T01:03:57;8.40;;;4.25;;
52974;SDS011;38839;45.186;5.720;2023-09-30T01:06:23;12.10;;;4.82;;
52974;SDS011;38839;45.186;5.720;2023-09-30T01:08:49;9.98;;;4.13;;
52974;SDS011;38839;45.186;5.720;2023-09-30T01:11:14;9.38;;;4.68;;
52974;SDS011;38839;45.186;5.720;2023-09-30T01:13:40;11.13;;;4.90;;
52974;SDS011;38839;45.186;5.720;2023-09-30T01:16:08;10.95;;;4.90;;
52974;SDS011;38839;45.186;5.720;2023-09-30T01:18:34;10.20;;;4.97;;
52974;SDS011;38839;45.186;5.720;2023-09-30T01:21:04;9.07;;;4.40;;
52974;SDS011;38839;45.186;5.720;2023-09-30T01:23:31;10.88;;;4.45;;
52974;SDS011;38839;45.186;5.720;2023-09-30T01:25:56;11.55;;;5.15;;
52974;SDS011;38839;45.186;5.720;2023-09-30T01:28:22;10.73;;;4.57;;
52974;SDS011;38839;45.186;5.720;2023-09-30T01:30:48;9.13;;;4.80;;
52974;SDS011;38839;45.186;5.720;2023-09-30T01:33:13;11.07;;;5.35;;
52974;SDS011;38839;45.186;5.720;2023-09-30T01:35:39;11.57;;;5.05;;
52974;SDS011;38839;45.186;5.720;2023-09-30T01:38:04;9.50;;;4.95;;
52974;SDS011;38839;45.186;5.720;2023-09-30T01:40:31;12.77;;;5.20;;
52974;SDS011;38839;45.186;5.720;2023-09-30T01:42:56;10.73;;;4.85;;
52974;SDS011;38839;45.186;5.720;2023-09-30T01:45:22;9.88;;;4.60;;
52974;SDS011;38839;45.186;5.720;2023-09-30T01:47:47;12.63;;;5.82;;
52974;SDS011;38839;45.186;5.720;2023-09-30T01:50:13;13.50;;;5.13;;
52974;SDS011;38839;45.186;5.720;2023-09-30T01:52:38;10.38;;;4.95;;
52974;SDS011;38839;45.186;5.720;2023-09-30T01:55:03;10.75;;;4.90;;
52974;SDS011;38839;45.186;5.720;2023-09-30T01:57:29;10.82;;;4.78;;
52974;SDS011;38839;45.186;5.720;2023-09-30T01:59:54;10.40;;;4.80;;
52974;SDS011;38839;45.186;5.720;2023-09-30T02:02:20;14.93;;;5.28;;
52974;SDS011;38839;45.186;5.720;2023-09-30T02:04:45;10.40;;;4.72;;
52974;SDS011;38839;45.186;5.720;2023-09-30T02:07:10;11.18;;;5.10;;
52974;SDS011;38839;45.186;5.720;2023-09-30T02:09:36;9.63;;;5.07;;
52974;SDS011;38839;45.186;5.720;2023-09-30T02:12:01;12.68;;;5.65;;
52974;SDS011;38839;45.186;5.720;2023-09-30T02:14:27;17.30;;;4.90;;
52974;SDS011;38839;45.186;5.720;2023-09-30T02:16:52;10.73;;;5.07;;
52974;SDS011;38839;45.186;5.720;2023-09-30T02:19:18;11.05;;;5.13;;
52974;SDS011;38839;45.186;5.720;2023-09-30T02:21:44;17.83;;;5.15;;
52974;SDS011;38839;45.186;5.720;2023-09-30T02:24:10;12.50;;;5.57;;
52974;SDS011;38839;45.186;5.720;2023-09-30T02:26:35;10.85;;;5.47;;
52974;SDS011;38839;45.186;5.720;2023-09-30T02:29:00;10.95;;;5.22;;
52974;SDS011;38839;45.186;5.720;2023-09-30T02:31:26;11.93;;;4.72;;
52974;SDS011;38839;45.186;5.720;2023-09-30T02:33:51;10.48;;;4.97;;
52974;SDS011;38839;45.186;5.720;2023-09-30T02:36:16;10.48;;;4.50;;
52974;SDS011;38839;45.186;5.720;2023-09-30T02:38:42;7.57;;;3.50;;
52974;SDS011;38839;45.186;5.720;2023-09-30T02:41:08;5.28;;;2.88;;
52974;SDS011;38839;45.186;5.720;2023-09-30T02:43:33;3.80;;;2.38;;
52974;SDS011;38839;45.186;5.720;2023-09-30T02:45:59;5.70;;;2.80;;
52974;SDS011;38839;45.186;5.720;2023-09-30T02:48:24;4.40;;;2.70;;
52974;SDS011;38839;45.186;5.720;2023-09-30T02:50:50;4.75;;;2.72;;
52974;SDS011;38839;45.186;5.720;2023-09-30T02:53:15;5.18;;;3.00;;
52974;SDS011;38839;45.186;5.720;2023-09-30T02:55:41;5.03;;;2.60;;
52974;SDS011;38839;45.186;5.720;2023-09-30T02:58:07;5.20;;;2.70;;
52974;SDS011;38839;45.186;5.720;2023-09-30T03:00:34;5.13;;;2.90;;
52974;SDS011;38839;45.186;5.720;2023-09-30T03:03:01;5.90;;;3.08;;
52974;SDS011;38839;45.186;5.720;2023-09-30T03:05:27;6.05;;;2.75;;
52974;SDS011;38839;45.186;5.720;2023-09-30T03:07:55;3.72;;;2.30;;
52974;SDS011;38839;45.186;5.720;2023-09-30T03:10:21;5.75;;;3.15;;
52974;SDS011;38839;45.186;5.720;2023-09-30T03:12:51;6.15;;;2.95;;
52974;SDS011;38839;45.186;5.720;2023-09-30T03:15:17;8.40;;;3.17;;
52974;SDS011;38839;45.186;5.720;2023-09-30T03:17:42;5.43;;;2.67;;
52974;SDS011;38839;45.186;5.720;2023-09-30T03:20:08;5.53;;;3.20;;
52974;SDS011;38839;45.186;5.720;2023-09-30T03:22:40;6.00;;;2.83;;
52974;SDS011;38839;45.186;5.720;2023-09-30T03:25:12;4.95;;;3.38;;
52974;SDS011;38839;45.186;5.720;2023-09-30T03:27:38;6.00;;;3.03;;
52974;SDS011;38839;45.186;5.720;2023-09-30T03:30:06;5.72;;;3.00;;
52974;SDS011;38839;45.186;5.720;2023-09-30T03:32:34;10.65;;;3.78;;
52974;SDS011;38839;45.186;5.720;2023-09-30T03:35:01;10.57;;;4.68;;
52974;SDS011;38839;45.186;5.720;2023-09-30T03:37:27;12.32;;;4.43;;
52974;SDS011;38839;45.186;5.720;2023-09-30T03:39:56;11.93;;;4.75;;
52974;SDS011;38839;45.186;5.720;2023-09-30T03:42:22;10.35;;;4.43;;
52974;SDS011;38839;45.186;5.720;2023-09-30T03:44:47;6.97;;;3.22;;
52974;SDS011;38839;45.186;5.720;2023-09-30T03:47:16;5.72;;;3.10;;
52974;SDS011;38839;45.186;5.720;2023-09-30T03:49:42;6.65;;;3.35;;
52974;SDS011;38839;45.186;5.720;2023-09-30T03:52:08;5.30;;;2.75;;
52974;SDS011;38839;45.186;5.720;2023-09-30T03:54:34;8.30;;;2.70;;
52974;SDS011;38839;45.186;5.720;2023-09-30T03:57:00;5.65;;;2.78;;
52974;SDS011;38839;45.186;5.720;2023-09-30T03:59:26;4.53;;;2.50;;
52974;SDS011;38839;45.186;5.720;2023-09-30T04:01:52;4.38;;;2.45;;
52974;SDS011;38839;45.186;5.720;2023-09-30T04:04:19;5.10;;;2.85;;
52974;SDS011;38839;45.186;5.720;2023-09-30T04:06:46;5.75;;;2.80;;
52974;SDS011;38839;45.186;5.720;2023-09-30T04:09:12;5.25;;;3.13;;
52974;SDS011;38839;45.186;5.720;2023-09-30T04:11:38;4.22;;;2.63;;
52974;SDS011;38839;45.186;5.720;2023-09-30T04:14:07;7.85;;;3.10;;
52974;SDS011;38839;45.186;5.720;2023-09-30T04:18:59;9.55;;;2.92;;
52974;SDS011;38839;45.186;5.720;2023-09-30T04:21:25;5.03;;;2.80;;
52974;SDS011;38839;45.186;5.720;2023-09-30T04:23:52;7.30;;;2.85;;
52974;SDS011;38839;45.186;5.720;2023-09-30T04:26:18;7.00;;;2.97;;
52974;SDS011;38839;45.186;5.720;2023-09-30T04:28:43;4.90;;;2.75;;
52974;SDS011;38839;45.186;5.720;2023-09-30T04:31:08;6.43;;;2.90;;
52974;SDS011;38839;45.186;5.720;2023-09-30T04:33:34;5.65;;;2.72;;
52974;SDS011;38839;45.186;5.720;2023-09-30T04:36:01;4.13;;;2.35;;
52974;SDS011;38839;45.186;5.720;2023-09-30T04:38:27;5.88;;;3.00;;
52974;SDS011;38839;45.186;5.720;2023-09-30T04:40:52;4.65;;;2.92;;
52974;SDS011;38839;45.186;5.720;2023-09-30T04:43:19;5.45;;;2.88;;
52974;SDS011;38839;45.186;5.720;2023-09-30T04:45:46;5.25;;;3.15;;
52974;SDS011;38839;45.186;5.720;2023-09-30T04:48:11;4.25;;;2.70;;
52974;SDS011;38839;45.186;5.720;2023-09-30T04:50:38;4.88;;;2.63;;
52974;SDS011;38839;45.186;5.720;2023-09-30T04:53:04;5.35;;;3.05;;
52974;SDS011;38839;45.186;5.720;2023-09-30T04:55:30;5.38;;;3.28;;
52974;SDS011;38839;45.186;5.720;2023-09-30T04:57:55;7.28;;;3.45;;
52974;SDS011;38839;45.186;5.720;2023-09-30T05:00:21;7.57;;;4.18;;
52974;SDS011;38839;45.186;5.720;2023-09-30T05:02:55;8.57;;;4.43;;
52974;SDS011;38839;45.186;5.720;2023-09-30T05:05:20;11.20;;;4.53;;
52974;SDS011;38839;45.186;5.720;2023-09-30T05:07:46;12.70;;;5.03;;
52974;SDS011;38839;45.186;5.720;2023-09-30T05:10:12;10.55;;;4.28;;
52974;SDS011;38839;45.186;5.720;2023-09-30T05:12:41;9.13;;;3.90;;
52974;SDS011;38839;45.186;5.720;2023-09-30T05:15:10;9.23;;;4.50;;
52974;SDS011;38839;45.186;5.720;2023-09-30T05:17:37;8.88;;;4.22;;
52974;SDS011;38839;45.186;5.720;2023-09-30T05:20:02;7.85;;;4.35;;
52974;SDS011;38839;45.186;5.720;2023-09-30T05:22:31;10.65;;;4.57;;
52974;SDS011;38839;45.186;5.720;2023-09-30T05:24:58;8.45;;;4.00;;
52974;SDS011;38839;45.186;5.720;2023-09-30T05:27:23;10.95;;;4.35;;
52974;SDS011;38839;45.186;5.720;2023-09-30T05:29:49;10.57;;;3.78;;
52974;SDS011;38839;45.186;5.720;2023-09-30T05:32:14;7.88;;;3.75;;
52974;SDS011;38839;45.186;5.720;2023-09-30T05:34:39;9.23;;;3.95;;
52974;SDS011;38839;45.186;5.720;2023-09-30T05:37:05;10.90;;;4.07;;
52974;SDS011;38839;45.186;5.720;2023-09-30T05:39:30;7.35;;;3.70;;
52974;SDS011;38839;45.186;5.720;2023-09-30T05:41:56;7.80;;;3.78;;
52974;SDS011;38839;45.186;5.720;2023-09-30T05:44:25;9.85;;;3.88;;
52974;SDS011;38839;45.186;5.720;2023-09-30T05:46:53;7.57;;;3.90;;
52974;SDS011;38839;45.186;5.720;2023-09-30T05:49:19;8.00;;;3.53;;
52974;SDS011;38839;45.186;5.720;2023-09-30T05:51:45;8.77;;;4.00;;
52974;SDS011;38839;45.186;5.720;2023-09-30T05:54:11;7.30;;;3.95;;
52974;SDS011;38839;45.186;5.720;2023-09-30T05:56:37;8.40;;;3.75;;
52974;SDS011;38839;45.186;5.720;2023-09-30T05:59:03;8.38;;;3.60;;
52974;SDS011;38839;45.186;5.720;2023-09-30T06:01:30;8.40;;;3.78;;
52974;SDS011;38839;45.186;5.720;2023-09-30T06:03:57;8.80;;;4.38;;
52974;SDS011;38839;45.186;5.720;2023-09-30T06:06:23;8.88;;;4.85;;
52974;SDS011;38839;45.186;5.720;2023-09-30T06:08:49;8.48;;;4.38;;
52974;SDS011;38839;45.186;5.720;2023-09-30T06:13:44;10.75;;;4.82;;
52974;SDS011;38839;45.186;5.720;2023-09-30T06:16:11;12.15;;;4.20;;
52974;SDS011;38839;45.186;5.720;2023-09-30T06:18:37;11.27;;;4.82;;
52974;SDS011;38839;45.186;5.720;2023-09-30T06:21:03;14.15;;;4.28;;
52974;SDS011;38839;45.186;5.720;2023-09-30T06:23:29;11.02;;;4.50;;
52974;SDS011;38839;45.186;5.720;2023-09-30T06:25:55;9.93;;;4.53;;
52974;SDS011;38839;45.186;5.720;2023-09-30T06:28:21;8.45;;;4.40;;
52974;SDS011;38839;45.186;5.720;2023-09-30T06:30:50;9.50;;;4.10;;
52974;SDS011;38839;45.186;5.720;2023-09-30T06:33:16;9.85;;;4.22;;
52974;SDS011;38839;45.186;5.720;2023-09-30T06:35:42;12.02;;;4.57;;
52974;SDS011;38839;45.186;5.720;2023-09-30T06:38:15;10.60;;;4.82;;
52974;SDS011;38839;45.186;5.720;2023-09-30T06:40:47;10.77;;;4.30;;
52974;SDS011;38839;45.186;5.720;2023-09-30T06:43:13;12.80;;;4.65;;
52974;SDS011;38839;45.186;5.720;2023-09-30T06:45:41;12.70;;;4.57;;
52974;SDS011;38839;45.186;5.720;2023-09-30T06:48:09;12.27;;;5.13;;
52974;SDS011;38839;45.186;5.720;2023-09-30T06:50:43;12.95;;;4.95;;
52974;SDS011;38839;45.186;5.720;2023-09-30T06:55:34;8.20;;;4.18;;
52974;SDS011;38839;45.186;5.720;2023-09-30T06:58:02;7.82;;;4.30;;
52974;SDS011;38839;45.186;5.720;2023-09-30T07:00:28;6.78;;;3.65;;
52974;SDS011;38839;45.186;5.720;2023-09-30T07:02:54;11.13;;;6.72;;
52974;SDS011;38839;45.186;5.720;2023-09-30T07:05:19;8.90;;;3.75;;
52974;SDS011;38839;45.186;5.720;2023-09-30T07:07:45;9.45;;;3.80;;
52974;SDS011;38839;45.186;5.720;2023-09-30T07:10:11;8.20;;;3.67;;
52974;SDS011;38839;45.186;5.720;2023-09-30T07:12:37;9.07;;;3.70;;
52974;SDS011;38839;45.186;5.720;2023-09-30T07:15:03;7.78;;;3.67;;
52974;SDS011;38839;45.186;5.720;2023-09-30T07:17:31;6.43;;;3.03;;
52974;SDS011;38839;45.186;5.720;2023-09-30T07:19:57;8.15;;;3.63;;
52974;SDS011;38839;45.186;5.720;2023-09-30T07:22:23;6.68;;;3.50;;
52974;SDS011;38839;45.186;5.720;2023-09-30T07:24:48;6.07;;;3.50;;
52974;SDS011;38839;45.186;5.720;2023-09-30T07:27:13;6.90;;;3.60;;
52974;SDS011;38839;45.186;5.720;2023-09-30T07:29:39;7.65;;;3.67;;
52974;SDS011;38839;45.186;5.720;2023-09-30T07:32:06;8.77;;;4.00;;
52974;SDS011;38839;45.186;5.720;2023-09-30T07:34:32;7.80;;;3.70;;
52974;SDS011;38839;45.186;5.720;2023-09-30T07:36:58;7.28;;;3.85;;
52974;SDS011;38839;45.186;5.720;2023-09-30T07:39:23;9.05;;;3.60;;
52974;SDS011;38839;45.186;5.720;2023-09-30T07:41:48;7.82;;;3.78;;
52974;SDS011;38839;45.186;5.720;2023-09-30T07:44:14;8.73;;;3.95;;
52974;SDS011;38839;45.186;5.720;2023-09-30T07:46:40;9.05;;;4.65;;
52974;SDS011;38839;45.186;5.720;2023-09-30T07:49:05;12.63;;;5.95;;
52974;SDS011;38839;45.186;5.720;2023-09-30T07:51:32;10.65;;;5.20;;
52974;SDS011;38839;45.186;5.720;2023-09-30T07:53:57;10.70;;;5.28;;
52974;SDS011;38839;45.186;5.720;2023-09-30T07:56:23;11.27;;;5.60;;
52974;SDS011;38839;45.186;5.720;2023-09-30T07:58:48;11.63;;;6.38;;
52974;SDS011;38839;45.186;5.720;2023-09-30T08:01:14;10.40;;;4.93;;
52974;SDS011;38839;45.186;5.720;2023-09-30T08:03:40;11.95;;;5.35;;
52974;SDS011;38839;45.186;5.720;2023-09-30T08:06:06;10.15;;;4.63;;
52974;SDS011;38839;45.186;5.720;2023-09-30T08:08:33;7.72;;;4.28;;
52974;SDS011;38839;45.186;5.720;2023-09-30T08:10:59;7.45;;;3.95;;
52974;SDS011;38839;45.186;5.720;2023-09-30T08:13:25;8.15;;;4.28;;
52974;SDS011;38839;45.186;5.720;2023-09-30T08:15:51;7.93;;;4.47;;
52974;SDS011;38839;45.186;5.720;2023-09-30T08:18:17;16.08;;;5.32;;
52974;SDS011;38839;45.186;5.720;2023-09-30T08:20:42;11.23;;;4.63;;
52974;SDS011;38839;45.186;5.720;2023-09-30T08:23:08;14.32;;;5.57;;
52974;SDS011;38839;45.186;5.720;2023-09-30T08:25:33;13.13;;;5.40;;
52974;SDS011;38839;45.186;5.720;2023-09-30T08:27:59;13.05;;;5.88;;
52974;SDS011;38839;45.186;5.720;2023-09-30T08:30:25;11.10;;;5.70;;
52974;SDS011;38839;45.186;5.720;2023-09-30T08:32:51;12.70;;;5.80;;
52974;SDS011;38839;45.186;5.720;2023-09-30T08:35:16;13.57;;;5.75;;
52974;SDS011;38839;45.186;5.720;2023-09-30T08:37:41;11.63;;;5.75;;
52974;SDS011;38839;45.186;5.720;2023-09-30T08:40:07;9.95;;;5.10;;
52974;SDS011;38839;45.186;5.720;2023-09-30T08:42:34;14.70;;;5.63;;
52974;SDS011;38839;45.186;5.720;2023-09-30T08:45:00;12.75;;;5.70;;
52974;SDS011;38839;45.186;5.720;2023-09-30T08:47:26;11.52;;;5.20;;
52974;SDS011;38839;45.186;5.720;2023-09-30T08:49:56;11.82;;;6.35;;
52974;SDS011;38839;45.186;5.720;2023-09-30T08:52:30;11.30;;;5.18;;
52974;SDS011;38839;45.186;5.720;2023-09-30T08:54:57;12.57;;;5.32;;
52974;SDS011;38839;45.186;5.720;2023-09-30T08:57:22;10.75;;;5.28;;
52974;SDS011;38839;45.186;5.720;2023-09-30T08:59:49;10.93;;;5.38;;
52974;SDS011;38839;45.186;5.720;2023-09-30T09:02:17;11.50;;;5.25;;
52974;SDS011;38839;45.186;5.720;2023-09-30T09:04:46;12.43;;;5.25;;
52974;SDS011;38839;45.186;5.720;2023-09-30T09:07:12;9.88;;;4.85;;
52974;SDS011;38839;45.186;5.720;2023-09-30T09:09:37;10.45;;;4.90;;
52974;SDS011;38839;45.186;5.720;2023-09-30T09:12:03;11.38;;;4.93;;
52974;SDS011;38839;45.186;5.720;2023-09-30T09:14:41;16.20;;;5.18;;
52974;SDS011;38839;45.186;5.720;2023-09-30T09:17:11;11.80;;;5.47;;
52974;SDS011;38839;45.186;5.720;2023-09-30T09:19:36;14.52;;;5.22;;
52974;SDS011;38839;45.186;5.720;2023-09-30T09:22:02;10.27;;;4.60;;
52974;SDS011;38839;45.186;5.720;2023-09-30T09:36:45;8.30;;;4.30;;
52974;SDS011;38839;45.186;5.720;2023-09-30T09:39:13;9.10;;;4.53;;
52974;SDS011;38839;45.186;5.720;2023-09-30T09:41:51;8.27;;;3.92;;
52974;SDS011;38839;45.186;5.720;2023-09-30T09:44:21;9.70;;;4.05;;
52974;SDS011;38839;45.186;5.720;2023-09-30T09:46:47;8.77;;;4.45;;
52974;SDS011;38839;45.186;5.720;2023-09-30T09:49:17;11.13;;;4.38;;
52974;SDS011;38839;45.186;5.720;2023-09-30T09:51:44;10.15;;;4.90;;
52974;SDS011;38839;45.186;5.720;2023-09-30T09:54:11;8.32;;;4.07;;
52974;SDS011;38839;45.186;5.720;2023-09-30T09:56:37;9.05;;;4.03;;
52974;SDS011;38839;45.186;5.720;2023-09-30T09:59:04;8.93;;;4.05;;
52974;SDS011;38839;45.186;5.720;2023-09-30T10:01:31;9.00;;;3.95;;
52974;SDS011;38839;45.186;5.720;2023-09-30T10:03:59;10.10;;;4.07;;
52974;SDS011;38839;45.186;5.720;2023-09-30T10:06:25;12.90;;;4.20;;
52974;SDS011;38839;45.186;5.720;2023-09-30T10:08:51;10.48;;;4.18;;
52974;SDS011;38839;45.186;5.720;2023-09-30T10:11:18;6.95;;;3.42;;
52974;SDS011;38839;45.186;5.720;2023-09-30T10:19:10;7.22;;;3.35;;
52974;SDS011;38839;45.186;5.720;2023-09-30T10:22:19;7.53;;;3.58;;
52974;SDS011;38839;45.186;5.720;2023-09-30T10:24:49;7.32;;;3.80;;
52974;SDS011;38839;45.186;5.720;2023-09-30T10:37:45;6.68;;;2.83;;
52974;SDS011;38839;45.186;5.720;2023-09-30T10:40:27;6.15;;;3.03;;
52974;SDS011;38839;45.186;5.720;2023-09-30T10:42:53;7.55;;;3.30;;
52974;SDS011;38839;45.186;5.720;2023-09-30T10:50:51;5.70;;;2.58;;
52974;SDS011;38839;45.186;5.720;2023-09-30T10:53:20;5.88;;;2.53;;
52974;SDS011;38839;45.186;5.720;2023-09-30T10:55:45;5.95;;;2.20;;
52974;SDS011;38839;45.186;5.720;2023-09-30T10:58:14;4.78;;;2.40;;
52974;SDS011;38839;45.186;5.720;2023-09-30T11:00:51;4.40;;;2.40;;
52974;SDS011;38839;45.186;5.720;2023-09-30T11:03:20;4.25;;;2.30;;
52974;SDS011;38839;45.186;5.720;2023-09-30T11:05:47;4.20;;;2.20;;
52974;SDS011;38839;45.186;5.720;2023-09-30T11:08:14;4.10;;;2.35;;
52974;SDS011;38839;45.186;5.720;2023-09-30T11:10:48;5.80;;;2.60;;
52974;SDS011;38839;45.186;5.720;2023-09-30T11:13:18;5.78;;;2.90;;
52974;SDS011;38839;45.186;5.720;2023-09-30T11:15:44;7.35;;;2.50;;
52974;SDS011;38839;45.186;5.720;2023-09-30T11:18:13;6.40;;;2.60;;
52974;SDS011;38839;45.186;5.720;2023-09-30T11:20:42;5.50;;;2.72;;
52974;SDS011;38839;45.186;5.720;2023-09-30T11:23:09;5.55;;;2.08;;
52974;SDS011;38839;45.186;5.720;2023-09-30T11:25:36;5.43;;;2.78;;
52974;SDS011;38839;45.186;5.720;2023-09-30T11:33:23;4.95;;;2.40;;
52974;SDS011;38839;45.186;5.720;2023-09-30T11:36:22;6.50;;;2.83;;
52974;SDS011;38839;45.186;5.720;2023-09-30T11:38:44;5.57;;;2.58;;
52974;SDS011;38839;45.186;5.720;2023-09-30T11:41:11;5.55;;;2.55;;
52974;SDS011;38839;45.186;5.720;2023-09-30T11:43:37;4.43;;;2.45;;
52974;SDS011;38839;45.186;5.720;2023-09-30T11:46:07;5.72;;;3.10;;
52974;SDS011;38839;45.186;5.720;2023-09-30T11:48:34;5.75;;;2.92;;
52974;SDS011;38839;45.186;5.720;2023-09-30T11:51:01;5.90;;;2.47;;
52974;SDS011;38839;45.186;5.720;2023-09-30T11:53:30;4.70;;;2.42;;
52974;SDS011;38839;45.186;5.720;2023-09-30T11:55:57;6.20;;;2.40;;
52974;SDS011;38839;45.186;5.720;2023-09-30T12:00:53;7.95;;;2.92;;
52974;SDS011;38839;45.186;5.720;2023-09-30T12:03:19;6.15;;;2.42;;
52974;SDS011;38839;45.186;5.720;2023-09-30T12:05:45;5.97;;;2.78;;
52974;SDS011;38839;45.186;5.720;2023-09-30T12:08:11;5.47;;;2.38;;
52974;SDS011;38839;45.186;5.720;2023-09-30T12:10:36;5.75;;;2.83;;
52974;SDS011;38839;45.186;5.720;2023-09-30T12:13:02;5.25;;;2.25;;
52974;SDS011;38839;45.186;5.720;2023-09-30T12:15:28;5.93;;;2.75;;
52974;SDS011;38839;45.186;5.720;2023-09-30T12:17:53;5.43;;;2.50;;
52974;SDS011;38839;45.186;5.720;2023-09-30T12:20:19;4.63;;;2.50;;
52974;SDS011;38839;45.186;5.720;2023-09-30T12:22:45;4.32;;;2.63;;
52974;SDS011;38839;45.186;5.720;2023-09-30T12:25:11;6.13;;;2.88;;
52974;SDS011;38839;45.186;5.720;2023-09-30T12:27:36;6.47;;;2.92;;
52974;SDS011;38839;45.186;5.720;2023-09-30T12:30:01;6.38;;;2.55;;
52974;SDS011;38839;45.186;5.720;2023-09-30T12:32:29;5.40;;;2.50;;
52974;SDS011;38839;45.186;5.720;2023-09-30T12:34:55;5.75;;;2.67;;
52974;SDS011;38839;45.186;5.720;2023-09-30T12:37:20;5.70;;;2.47;;
52974;SDS011;38839;45.186;5.720;2023-09-30T12:39:45;5.55;;;2.97;;
52974;SDS011;38839;45.186;5.720;2023-09-30T12:42:11;6.15;;;2.92;;
52974;SDS011;38839;45.186;5.720;2023-09-30T12:44:37;6.65;;;2.80;;
52974;SDS011;38839;45.186;5.720;2023-09-30T12:47:03;4.95;;;2.58;;
52974;SDS011;38839;45.186;5.720;2023-09-30T12:49:30;9.18;;;2.60;;
52974;SDS011;38839;45.186;5.720;2023-09-30T12:51:56;6.30;;;2.90;;
52974;SDS011;38839;45.186;5.720;2023-09-30T12:54:23;6.45;;;2.95;;
52974;SDS011;38839;45.186;5.720;2023-09-30T12:56:49;5.95;;;2.85;;
52974;SDS011;38839;45.186;5.720;2023-09-30T12:59:15;8.38;;;2.95;;
52974;SDS011;38839;45.186;5.720;2023-09-30T13:01:42;6.80;;;2.90;;
52974;SDS011;38839;45.186;5.720;2023-09-30T13:04:08;6.18;;;2.80;;
52974;SDS011;38839;45.186;5.720;2023-09-30T13:06:34;6.53;;;2.85;;
52974;SDS011;38839;45.186;5.720;2023-09-30T13:09:00;7.57;;;2.90;;
52974;SDS011;38839;45.186;5.720;2023-09-30T13:11:27;7.68;;;3.03;;
52974;SDS011;38839;45.186;5.720;2023-09-30T13:13:52;5.93;;;2.90;;
52974;SDS011;38839;45.186;5.720;2023-09-30T13:16:18;6.22;;;2.90;;
52974;SDS011;38839;45.186;5.720;2023-09-30T13:18:43;4.88;;;2.67;;
52974;SDS011;38839;45.186;5.720;2023-09-30T13:21:08;5.63;;;2.88;;
52974;SDS011;38839;45.186;5.720;2023-09-30T13:23:37;7.87;;;3.33;;
52974;SDS011;38839;45.186;5.720;2023-09-30T13:26:03;6.82;;;2.75;;
52974;SDS011;38839;45.186;5.720;2023-09-30T13:28:28;5.68;;;3.20;;
52974;SDS011;38839;45.186;5.720;2023-09-30T13:30:54;7.68;;;3.33;;
52974;SDS011;38839;45.186;5.720;2023-09-30T13:33:20;8.90;;;2.92;;
52974;SDS011;38839;45.186;5.720;2023-09-30T13:35:48;6.97;;;3.10;;
52974;SDS011;38839;45.186;5.720;2023-09-30T13:38:13;5.38;;;3.00;;
52974;SDS011;38839;45.186;5.720;2023-09-30T13:40:41;5.22;;;2.75;;
52974;SDS011;38839;45.186;5.720;2023-09-30T13:43:06;7.53;;;3.03;;
52974;SDS011;38839;45.186;5.720;2023-09-30T13:45:31;6.30;;;2.80;;
52974;SDS011;38839;45.186;5.720;2023-09-30T13:47:57;6.75;;;2.97;;
52974;SDS011;38839;45.186;5.720;2023-09-30T13:50:22;6.25;;;2.80;;
52974;SDS011;38839;45.186;5.720;2023-09-30T13:52:48;4.90;;;2.55;;
52974;SDS011;38839;45.186;5.720;2023-09-30T13:55:13;7.60;;;3.20;;
52974;SDS011;38839;45.186;5.720;2023-09-30T13:57:46;5.80;;;3.10;;
52974;SDS011;38839;45.186;5.720;2023-09-30T14:00:12;6.18;;;2.85;;
52974;SDS011;38839;45.186;5.720;2023-09-30T14:02:38;8.52;;;3.13;;
52974;SDS011;38839;45.186;5.720;2023-09-30T14:05:04;6.13;;;3.25;;
52974;SDS011;38839;45.186;5.720;2023-09-30T14:07:32;6.40;;;3.43;;
52974;SDS011;38839;45.186;5.720;2023-09-30T14:09:58;7.30;;;3.63;;
52974;SDS011;38839;45.186;5.720;2023-09-30T14:12:23;5.97;;;3.58;;
52974;SDS011;38839;45.186;5.720;2023-09-30T14:14:49;8.13;;;3.72;;
52974;SDS011;38839;45.186;5.720;2023-09-30T14:17:16;6.78;;;3.28;;
52974;SDS011;38839;45.186;5.720;2023-09-30T14:19:42;7.68;;;3.42;;
52974;SDS011;38839;45.186;5.720;2023-09-30T14:22:07;8.32;;;3.45;;
52974;SDS011;38839;45.186;5.720;2023-09-30T14:24:33;5.47;;;3.10;;
52974;SDS011;38839;45.186;5.720;2023-09-30T14:27:00;8.77;;;3.38;;
52974;SDS011;38839;45.186;5.720;2023-09-30T14:29:26;7.70;;;3.45;;
52974;SDS011;38839;45.186;5.720;2023-09-30T14:31:53;7.15;;;3.40;;
52974;SDS011;38839;45.186;5.720;2023-09-30T14:34:18;7.38;;;3.55;;
52974;SDS011;38839;45.186;5.720;2023-09-30T14:36:44;7.88;;;3.13;;
52974;SDS011;38839;45.186;5.720;2023-09-30T14:39:09;7.45;;;3.40;;
52974;SDS011;38839;45.186;5.720;2023-09-30T14:41:35;7.65;;;3.65;;
52974;SDS011;38839;45.186;5.720;2023-09-30T14:44:00;6.97;;;3.47;;
52974;SDS011;38839;45.186;5.720;2023-09-30T14:46:26;6.82;;;3.50;;
52974;SDS011;38839;45.186;5.720;2023-09-30T14:48:52;12.63;;;3.63;;
52974;SDS011;38839;45.186;5.720;2023-09-30T14:51:18;7.22;;;3.42;;
52974;SDS011;38839;45.186;5.720;2023-09-30T14:53:46;6.45;;;3.35;;
52974;SDS011;38839;45.186;5.720;2023-09-30T14:56:15;7.68;;;3.50;;
52974;SDS011;38839;45.186;5.720;2023-09-30T14:58:44;8.25;;;3.45;;
52974;SDS011;38839;45.186;5.720;2023-09-30T15:01:10;7.93;;;3.53;;
52974;SDS011;38839;45.186;5.720;2023-09-30T15:03:36;6.95;;;3.60;;
52974;SDS011;38839;45.186;5.720;2023-09-30T15:06:03;7.80;;;3.90;;
52974;SDS011;38839;45.186;5.720;2023-09-30T15:08:32;6.82;;;4.07;;
52974;SDS011;38839;45.186;5.720;2023-09-30T15:11:02;8.68;;;3.80;;
52974;SDS011;38839;45.186;5.720;2023-09-30T15:15:53;8.00;;;3.78;;
52974;SDS011;38839;45.186;5.720;2023-09-30T15:18:19;10.25;;;3.90;;
52974;SDS011;38839;45.186;5.720;2023-09-30T15:20:44;7.32;;;3.78;;
52974;SDS011;38839;45.186;5.720;2023-09-30T15:23:10;7.20;;;3.97;;
52974;SDS011;38839;45.186;5.720;2023-09-30T15:25:39;8.40;;;4.00;;
52974;SDS011;38839;45.186;5.720;2023-09-30T15:28:06;8.35;;;4.05;;
52974;SDS011;38839;45.186;5.720;2023-09-30T15:30:32;7.65;;;4.07;;